Time;durP1;ratioP1;P1;durP2;ratioP2;P2;SDS_P1;SDS_P2;PMS_P1;PMS_P2;Temp;Humidity;BMP_temperature;BMP_pressure;BME280_temperature;BME280_humidity;BME280_pressure;Samples;Min_cycle;Max_cycle;Signal;HPM_P1;HPM_P2
2022/01/11 00:00:25;;;;;;;8.75;3.17;;;;;;;;;;5126420;27;20027;-48
2022/01/11 00:02:52;;;;;;;2.38;1.33;;;;;;;;;;5126099;27;20541;-44
2022/01/11 00:05:32;;;;;;;3.45;2.08;;;;;;;;;;5122650;27;20019;-45
2022/01/11 00:07:58;;;;;;;9.15;2.05;;;;;;;;;;5125139;27;20035;-46
2022/01/11 00:10:33;;;;;;;5.68;2.03;;;;;;;;;;5125759;27;21439;-45
2022/01/11 00:13:00;;;;;;;14.18;2.17;;;;;;;;;;5125120;27;20102;-44
2022/01/11 00:15:26;;;;;;;6.20;1.10;;;;;;;;;;5125508;27;20227;-44
2022/01/11 00:17:51;;;;;;;3.53;1.27;;;;;;;;;;5125995;27;20487;-43
2022/01/11 00:20:19;;;;;;;4.28;1.75;;;;;;;;;;5127514;27;20067;-46
2022/01/11 00:25:26;;;;;;;12.53;3.03;;;;;;;;;;5126901;27;20106;-45
2022/01/11 00:27:56;;;;;;;5.03;2.20;;;;;;;;;;5125687;27;20419;-44
2022/01/11 00:30:22;;;;;;;5.53;2.83;;;;;;;;;;5124279;27;20649;-46
2022/01/11 00:32:52;;;;;;;8.57;2.08;;;;;;;;;;5125748;27;20130;-46
2022/01/11 00:35:22;;;;;;;6.40;2.08;;;;;;;;;;5125490;27;20038;-45
2022/01/11 00:37:48;;;;;;;4.97;1.85;;;;;;;;;;5127058;27;20042;-45
2022/01/11 00:40:14;;;;;;;8.25;2.05;;;;;;;;;;5127359;27;20083;-48
2022/01/11 00:42:39;;;;;;;12.27;3.25;;;;;;;;;;5128123;27;20422;-43
2022/01/11 00:45:05;;;;;;;5.72;2.72;;;;;;;;;;5128031;27;20161;-45
2022/01/11 00:47:31;;;;;;;2.60;1.20;;;;;;;;;;5109047;27;20027;-48
2022/01/11 00:49:56;;;;;;;6.75;1.48;;;;;;;;;;5126509;27;20018;-44
2022/01/11 00:52:22;;;;;;;7.03;2.13;;;;;;;;;;5126118;27;20019;-44
2022/01/11 00:54:47;;;;;;;7.68;1.52;;;;;;;;;;5127631;27;20015;-44
2022/01/11 00:57:12;;;;;;;4.97;2.25;;;;;;;;;;5126553;27;20027;-43
2022/01/11 00:59:38;;;;;;;1.73;0.70;;;;;;;;;;5128118;27;20568;-45
2022/01/11 01:02:03;;;;;;;2.17;1.30;;;;;;;;;;5109122;27;20363;-45
2022/01/11 01:04:28;;;;;;;5.18;1.35;;;;;;;;;;5126981;27;20094;-46
2022/01/11 01:06:54;;;;;;;4.22;1.38;;;;;;;;;;5125842;27;20060;-45
2022/01/11 01:09:19;;;;;;;7.75;1.20;;;;;;;;;;5127346;27;20114;-50
2022/01/11 01:11:46;;;;;;;3.47;0.85;;;;;;;;;;5125989;27;20075;-45
2022/01/11 01:14:12;;;;;;;3.85;1.13;;;;;;;;;;5126450;27;20095;-49
2022/01/11 01:16:38;;;;;;;8.07;1.70;;;;;;;;;;5124927;27;20102;-50
2022/01/11 01:19:04;;;;;;;2.03;0.70;;;;;;;;;;5126504;27;20027;-45
2022/01/11 01:21:36;;;;;;;2.47;1.05;;;;;;;;;;5126190;27;20063;-49
2022/01/11 01:24:02;;;;;;;3.95;1.00;;;;;;;;;;5127067;27;20027;-45
2022/01/11 01:26:27;;;;;;;0.95;0.40;;;;;;;;;;5127050;27;20011;-46
2022/01/11 01:28:53;;;;;;;4.18;1.08;;;;;;;;;;5126785;27;20548;-47
2022/01/11 01:31:18;;;;;;;6.07;2.42;;;;;;;;;;5125076;27;20020;-47
2022/01/11 01:33:45;;;;;;;5.70;1.13;;;;;;;;;;5127125;27;20026;-47
2022/01/11 01:36:11;;;;;;;8.38;2.05;;;;;;;;;;5127016;27;20094;-48
2022/01/11 01:38:37;;;;;;;8.43;2.13;;;;;;;;;;5126896;27;20031;-44
2022/01/11 01:41:12;;;;;;;6.30;1.05;;;;;;;;;;5126335;27;20023;-44
2022/01/11 01:43:38;;;;;;;0.65;0.52;;;;;;;;;;5126268;27;20015;-46
2022/01/11 01:46:03;;;;;;;5.22;1.35;;;;;;;;;;5125191;28;20446;-46
2022/01/11 01:48:29;;;;;;;3.97;1.20;;;;;;;;;;5125495;27;20044;-45
2022/01/11 01:50:54;;;;;;;9.35;3.00;;;;;;;;;;5125572;28;20047;-48
2022/01/11 01:53:20;;;;;;;7.30;1.98;;;;;;;;;;5126324;28;20923;-47
2022/01/11 01:55:47;;;;;;;7.85;1.70;;;;;;;;;;5125763;27;20064;-47
2022/01/11 01:58:13;;;;;;;4.65;1.52;;;;;;;;;;5129227;27;20069;-47
2022/01/11 02:00:42;;;;;;;2.47;1.05;;;;;;;;;;5131381;27;20050;-47
2022/01/11 02:03:12;;;;;;;5.45;1.00;;;;;;;;;;5128477;27;20494;-45
2022/01/11 02:05:38;;;;;;;4.63;1.35;;;;;;;;;;5130904;27;20050;-44
2022/01/11 02:08:05;;;;;;;3.65;1.65;;;;;;;;;;5131121;27;20051;-45
2022/01/11 02:10:31;;;;;;;9.32;1.13;;;;;;;;;;5130158;27;20104;-47
2022/01/11 02:12:56;;;;;;;5.85;1.83;;;;;;;;;;5127575;27;20466;-46
2022/01/11 02:15:21;;;;;;;6.28;3.08;;;;;;;;;;5131827;27;20431;-47
2022/01/11 02:17:47;;;;;;;2.17;1.13;;;;;;;;;;5130734;27;20015;-45
2022/01/11 02:20:13;;;;;;;7.38;1.63;;;;;;;;;;5108541;28;20450;-50
2022/01/11 02:22:38;;;;;;;5.55;1.65;;;;;;;;;;5110115;28;20076;-44
2022/01/11 02:25:04;;;;;;;5.07;1.63;;;;;;;;;;5110524;28;20024;-47
2022/01/11 02:27:29;;;;;;;11.35;2.17;;;;;;;;;;5110751;28;20020;-45
2022/01/11 02:29:55;;;;;;;3.85;0.95;;;;;;;;;;5109825;28;20019;-48
2022/01/11 02:32:21;;;;;;;7.70;1.40;;;;;;;;;;5107508;28;20470;-48
2022/01/11 02:34:46;;;;;;;2.03;1.38;;;;;;;;;;5110271;27;20027;-48
2022/01/11 02:37:12;;;;;;;6.75;1.58;;;;;;;;;;5109778;28;20042;-50
2022/01/11 02:39:37;;;;;;;6.50;1.75;;;;;;;;;;5110411;28;20023;-45
2022/01/11 02:42:03;;;;;;;10.70;2.38;;;;;;;;;;5110633;28;20505;-47
2022/01/11 02:44:28;;;;;;;6.75;1.73;;;;;;;;;;5110001;28;20020;-47
2022/01/11 02:46:54;;;;;;;1.50;0.73;;;;;;;;;;5109821;28;20033;-47
2022/01/11 02:49:19;;;;;;;9.13;1.55;;;;;;;;;;5109863;28;20402;-45
2022/01/11 02:51:45;;;;;;;4.95;1.88;;;;;;;;;;5108484;28;20077;-47
2022/01/11 02:54:13;;;;;;;9.98;2.67;;;;;;;;;;5109388;28;20050;-45
2022/01/11 02:56:38;;;;;;;7.63;2.33;;;;;;;;;;5108339;28;20035;-46
2022/01/11 02:59:04;;;;;;;7.80;1.58;;;;;;;;;;5107768;28;20028;-45
2022/01/11 03:01:29;;;;;;;8.27;1.85;;;;;;;;;;5109687;28;20059;-50
2022/01/11 03:03:55;;;;;;;6.50;2.53;;;;;;;;;;5109729;28;20110;-46
2022/01/11 03:06:23;;;;;;;3.33;1.92;;;;;;;;;;5109750;28;20393;-47
2022/01/11 03:08:48;;;;;;;6.85;0.85;;;;;;;;;;5105540;28;20031;-46
2022/01/11 03:11:15;;;;;;;5.22;2.22;;;;;;;;;;5107885;28;20015;-49
2022/01/11 03:13:41;;;;;;;5.70;2.65;;;;;;;;;;5109171;28;20193;-45
2022/01/11 03:16:07;;;;;;;5.53;2.05;;;;;;;;;;5108004;28;20440;-47
2022/01/11 03:18:33;;;;;;;18.38;2.63;;;;;;;;;;5108800;28;20076;-51
2022/01/11 03:20:58;;;;;;;2.85;1.67;;;;;;;;;;5120210;27;20134;-47
2022/01/11 03:23:24;;;;;;;10.52;2.83;;;;;;;;;;5129240;27;20011;-48
2022/01/11 03:25:52;;;;;;;3.70;1.20;;;;;;;;;;5129491;27;20053;-46
2022/01/11 03:28:18;;;;;;;4.10;1.48;;;;;;;;;;5127523;27;20068;-46
2022/01/11 03:30:44;;;;;;;4.15;1.40;;;;;;;;;;5128481;27;20027;-45
2022/01/11 03:33:09;;;;;;;8.10;1.38;;;;;;;;;;5128971;27;20047;-46
2022/01/11 03:35:36;;;;;;;3.25;1.75;;;;;;;;;;5129459;27;20090;-46
2022/01/11 03:38:03;;;;;;;6.93;1.83;;;;;;;;;;5127631;27;20023;-47
2022/01/11 03:40:29;;;;;;;12.00;3.30;;;;;;;;;;5129600;27;20022;-47
2022/01/11 03:42:54;;;;;;;5.88;2.22;;;;;;;;;;5128167;27;20812;-46
2022/01/11 03:45:24;;;;;;;16.13;2.05;;;;;;;;;;5129666;27;20038;-46
2022/01/11 03:47:50;;;;;;;5.05;2.25;;;;;;;;;;5127741;27;20023;-47
2022/01/11 03:50:16;;;;;;;9.68;2.30;;;;;;;;;;5128471;27;20025;-45
2022/01/11 03:52:43;;;;;;;6.95;1.52;;;;;;;;;;5127237;27;20015;-45
2022/01/11 03:55:13;;;;;;;6.75;2.28;;;;;;;;;;5128442;27;20027;-46
2022/01/11 03:57:39;;;;;;;3.03;1.38;;;;;;;;;;5127799;27;20026;-47
2022/01/11 04:00:10;;;;;;;0.68;0.28;;;;;;;;;;5128368;27;20042;-45
2022/01/11 04:02:35;;;;;;;2.17;1.50;;;;;;;;;;5128606;27;20118;-45
2022/01/11 04:05:01;;;;;;;4.95;1.63;;;;;;;;;;5128681;27;20188;-47
2022/01/11 04:07:27;;;;;;;7.70;1.27;;;;;;;;;;5127622;27;20079;-47
2022/01/11 04:09:53;;;;;;;0.60;0.50;;;;;;;;;;5127798;27;20011;-45
2022/01/11 04:12:19;;;;;;;1.13;0.50;;;;;;;;;;5126750;27;20034;-46
2022/01/11 04:14:44;;;;;;;12.88;0.82;;;;;;;;;;5128144;27;20094;-49
2022/01/11 04:17:13;;;;;;;1.25;0.38;;;;;;;;;;5126637;27;20019;-49
2022/01/11 04:19:41;;;;;;;0.35;0.20;;;;;;;;;;5127056;27;20027;-45
2022/01/11 04:22:07;;;;;;;2.20;0.43;;;;;;;;;;5128525;27;20047;-45
2022/01/11 04:24:32;;;;;;;1.88;0.40;;;;;;;;;;5128780;27;20030;-46
2022/01/11 04:26:57;;;;;;;3.95;0.90;;;;;;;;;;5128388;27;20026;-49
2022/01/11 04:29:23;;;;;;;8.40;2.72;;;;;;;;;;5128433;27;20122;-46
2022/01/11 04:31:48;;;;;;;3.03;1.75;;;;;;;;;;5126903;27;20034;-45
2022/01/11 04:34:14;;;;;;;11.00;2.67;;;;;;;;;;5128391;27;20019;-46
2022/01/11 04:36:40;;;;;;;4.68;0.95;;;;;;;;;;5128658;27;20484;-46
2022/01/11 04:39:07;;;;;;;3.20;1.65;;;;;;;;;;5128014;27;20023;-51
2022/01/11 04:41:32;;;;;;;4.38;1.55;;;;;;;;;;5127780;27;20466;-49
2022/01/11 04:43:58;;;;;;;1.77;0.50;;;;;;;;;;5127837;27;20060;-49
2022/01/11 04:46:25;;;;;;;2.92;1.30;;;;;;;;;;5128307;27;20438;-47
2022/01/11 04:48:50;;;;;;;9.95;1.90;;;;;;;;;;5128041;27;20030;-47
2022/01/11 04:51:16;;;;;;;2.95;1.85;;;;;;;;;;5126595;27;20015;-46
2022/01/11 04:53:41;;;;;;;6.93;1.75;;;;;;;;;;5127087;27;20031;-48
2022/01/11 04:56:07;;;;;;;4.38;1.30;;;;;;;;;;5126260;27;20022;-48
2022/01/11 04:58:33;;;;;;;2.38;0.93;;;;;;;;;;5127149;27;20015;-45
2022/01/11 05:00:58;;;;;;;4.78;2.30;;;;;;;;;;5126594;27;20023;-41
2022/01/11 05:03:23;;;;;;;6.43;2.72;;;;;;;;;;5126626;27;20031;-44
2022/01/11 05:05:49;;;;;;;6.50;3.10;;;;;;;;;;5124727;27;20050;-49
2022/01/11 05:08:14;;;;;;;1.23;0.63;;;;;;;;;;5127009;27;20019;-47
2022/01/11 05:10:42;;;;;;;5.72;2.00;;;;;;;;;;5126243;27;20067;-48
2022/01/11 05:13:11;;;;;;;10.13;2.40;;;;;;;;;;5126018;27;20040;-46
2022/01/11 05:15:37;;;;;;;10.77;1.42;;;;;;;;;;5125188;27;20023;-48
2022/01/11 05:18:04;;;;;;;2.50;1.15;;;;;;;;;;5126691;27;20026;-46
2022/01/11 05:20:29;;;;;;;13.13;1.23;;;;;;;;;;5126831;27;20047;-46
2022/01/11 05:22:54;;;;;;;2.38;0.70;;;;;;;;;;5107921;27;20029;-49
2022/01/11 05:25:20;;;;;;;3.67;1.50;;;;;;;;;;5125994;27;20031;-44
2022/01/11 05:27:46;;;;;;;4.43;0.70;;;;;;;;;;5126624;27;20123;-47
2022/01/11 05:30:12;;;;;;;7.68;2.10;;;;;;;;;;5125468;27;20106;-47
2022/01/11 05:32:38;;;;;;;7.32;1.08;;;;;;;;;;5124666;27;20522;-43
2022/01/11 05:35:04;;;;;;;4.13;2.08;;;;;;;;;;5126413;27;20098;-44
2022/01/11 05:37:30;;;;;;;6.55;1.52;;;;;;;;;;5126514;27;20019;-48
2022/01/11 05:39:55;;;;;;;2.88;1.77;;;;;;;;;;5126928;27;20511;-49
2022/01/11 05:42:22;;;;;;;2.72;0.73;;;;;;;;;;5126547;27;20015;-47
2022/01/11 05:44:47;;;;;;;7.85;0.90;;;;;;;;;;5126436;27;20435;-48
2022/01/11 05:47:12;;;;;;;6.15;2.25;;;;;;;;;;5126479;27;20023;-44
2022/01/11 05:49:38;;;;;;;11.07;2.70;;;;;;;;;;5125160;27;20356;-43
2022/01/11 05:52:06;;;;;;;14.48;2.47;;;;;;;;;;5124293;28;20015;-44
2022/01/11 05:54:32;;;;;;;6.15;0.77;;;;;;;;;;5125257;28;20011;-48
2022/01/11 05:56:57;;;;;;;4.47;1.40;;;;;;;;;;5124602;28;20061;-45
2022/01/11 05:59:22;;;;;;;6.65;1.48;;;;;;;;;;5124188;28;20023;-44
2022/01/11 06:01:48;;;;;;;1.65;1.10;;;;;;;;;;5121859;28;20417;-47
2022/01/11 06:04:13;;;;;;;1.95;0.47;;;;;;;;;;5122960;27;20027;-44
2022/01/11 06:06:39;;;;;;;8.35;3.30;;;;;;;;;;5126542;28;20141;-46
2022/01/11 06:09:04;;;;;;;10.00;4.97;;;;;;;;;;5126132;28;20035;-48
2022/01/11 06:11:30;;;;;;;1.85;0.77;;;;;;;;;;5124074;28;20028;-47
2022/01/11 06:13:55;;;;;;;14.32;1.95;;;;;;;;;;5125876;28;20054;-44
2022/01/11 06:16:21;;;;;;;2.50;1.02;;;;;;;;;;5123052;28;20018;-47
2022/01/11 06:18:46;;;;;;;2.42;0.30;;;;;;;;;;5123821;28;20039;-43
2022/01/11 06:21:12;;;;;;;16.38;4.65;;;;;;;;;;5124860;28;20047;-49
2022/01/11 06:23:37;;;;;;;2.28;1.27;;;;;;;;;;5126246;28;20034;-47
2022/01/11 06:26:02;;;;;;;10.32;1.17;;;;;;;;;;5125858;28;20023;-48
2022/01/11 06:28:28;;;;;;;0.43;0.20;;;;;;;;;;5124747;28;20011;-46
2022/01/11 06:30:53;;;;;;;7.18;1.70;;;;;;;;;;5122072;28;20011;-49
2022/01/11 06:33:18;;;;;;;2.85;1.42;;;;;;;;;;5126593;28;20102;-47
2022/01/11 06:35:44;;;;;;;13.43;2.58;;;;;;;;;;5124775;28;20018;-44
2022/01/11 06:38:09;;;;;;;7.53;0.90;;;;;;;;;;5125262;27;20027;-50
2022/01/11 06:40:34;;;;;;;1.70;0.95;;;;;;;;;;5125550;28;20081;-46
2022/01/11 06:43:00;;;;;;;5.22;1.10;;;;;;;;;;5125767;27;20038;-49
2022/01/11 06:45:25;;;;;;;6.15;2.05;;;;;;;;;;5124613;27;20053;-47
2022/01/11 06:47:51;;;;;;;8.18;2.00;;;;;;;;;;5127884;27;20453;-47
2022/01/11 06:50:17;;;;;;;4.82;2.45;;;;;;;;;;5128186;27;20034;-50
2022/01/11 06:52:42;;;;;;;15.30;3.08;;;;;;;;;;5128072;27;20015;-47
2022/01/11 06:55:08;;;;;;;14.30;4.32;;;;;;;;;;5128379;27;20027;-47
2022/01/11 06:57:33;;;;;;;14.93;3.83;;;;;;;;;;5127059;27;20068;-47
2022/01/11 06:59:59;;;;;;;7.30;3.38;;;;;;;;;;5127059;27;20035;-48
2022/01/11 07:02:24;;;;;;;7.65;2.72;;;;;;;;;;5128963;27;20091;-46
2022/01/11 07:04:49;;;;;;;12.27;4.68;;;;;;;;;;5127992;27;20341;-46
2022/01/11 07:07:15;;;;;;;4.45;1.95;;;;;;;;;;5127505;27;20026;-48
2022/01/11 07:09:40;;;;;;;3.20;1.42;;;;;;;;;;5127595;27;20015;-49
2022/01/11 07:12:06;;;;;;;5.75;1.73;;;;;;;;;;5126958;27;20047;-51
2022/01/11 07:14:31;;;;;;;3.22;1.80;;;;;;;;;;5124712;27;20044;-49
2022/01/11 07:16:56;;;;;;;13.52;2.65;;;;;;;;;;5125160;27;20026;-47
2022/01/11 07:19:22;;;;;;;8.38;2.15;;;;;;;;;;5126328;27;20027;-49
2022/01/11 07:21:47;;;;;;;5.82;2.00;;;;;;;;;;5125896;27;20051;-47
2022/01/11 07:24:13;;;;;;;2.75;1.52;;;;;;;;;;5126028;27;20462;-48
2022/01/11 07:26:39;;;;;;;6.88;2.22;;;;;;;;;;5126226;27;20023;-49
2022/01/11 07:29:05;;;;;;;3.97;2.33;;;;;;;;;;5126505;27;20031;-47
2022/01/11 07:31:31;;;;;;;3.53;1.70;;;;;;;;;;5126351;27;20023;-50
2022/01/11 07:33:56;;;;;;;2.42;1.77;;;;;;;;;;5127123;27;20135;-48
2022/01/11 07:36:21;;;;;;;13.80;3.83;;;;;;;;;;5126535;27;20456;-49
2022/01/11 07:38:47;;;;;;;9.52;2.95;;;;;;;;;;5126933;27;20179;-49
2022/01/11 07:41:12;;;;;;;4.38;0.70;;;;;;;;;;5125738;27;20538;-48
2022/01/11 07:43:37;;;;;;;5.03;1.95;;;;;;;;;;5125503;27;20034;-48
2022/01/11 07:46:03;;;;;;;8.77;1.13;;;;;;;;;;5126342;27;20022;-44
2022/01/11 07:48:28;;;;;;;5.53;1.67;;;;;;;;;;5107289;27;20787;-47
2022/01/11 07:50:53;;;;;;;7.70;2.47;;;;;;;;;;5126332;27;20534;-47
2022/01/11 07:53:19;;;;;;;9.90;2.00;;;;;;;;;;5125312;27;20071;-48
2022/01/11 07:55:44;;;;;;;3.42;1.75;;;;;;;;;;5124644;27;20016;-47
2022/01/11 07:58:10;;;;;;;3.38;2.20;;;;;;;;;;5123302;27;20027;-49
2022/01/11 08:00:35;;;;;;;3.22;1.42;;;;;;;;;;5126240;27;20046;-48
2022/01/11 08:03:00;;;;;;;4.68;1.45;;;;;;;;;;5125158;27;20038;-49
2022/01/11 08:05:26;;;;;;;3.38;1.52;;;;;;;;;;5124922;27;20062;-50
2022/01/11 08:07:51;;;;;;;1.38;0.70;;;;;;;;;;5125686;27;20640;-51
2022/01/11 08:10:18;;;;;;;5.65;1.42;;;;;;;;;;5126882;27;20019;-58
2022/01/11 08:12:44;;;;;;;4.60;1.92;;;;;;;;;;5125855;27;20047;-56
2022/01/11 08:15:09;;;;;;;2.42;0.77;;;;;;;;;;5126112;27;20051;-58
2022/01/11 08:17:35;;;;;;;6.60;1.70;;;;;;;;;;5126825;27;20072;-58
2022/01/11 08:20:00;;;;;;;2.67;1.17;;;;;;;;;;5126718;27;20026;-56
2022/01/11 08:22:26;;;;;;;7.30;2.80;;;;;;;;;;5121730;27;20020;-61
2022/01/11 08:24:51;;;;;;;5.47;1.48;;;;;;;;;;5125614;27;20516;-60
2022/01/11 08:27:19;;;;;;;5.38;2.90;;;;;;;;;;5123637;27;20075;-60
2022/01/11 08:29:45;;;;;;;12.95;3.70;;;;;;;;;;5125587;27;20051;-60
2022/01/11 08:32:10;;;;;;;6.72;3.20;;;;;;;;;;5126442;27;20086;-60
2022/01/11 08:34:36;;;;;;;6.88;3.67;;;;;;;;;;5126649;27;20096;-60
2022/01/11 08:37:01;;;;;;;8.63;1.48;;;;;;;;;;5125435;27;20468;-60
2022/01/11 08:39:26;;;;;;;9.55;2.95;;;;;;;;;;5127442;27;20023;-59
2022/01/11 08:41:52;;;;;;;6.95;2.33;;;;;;;;;;5127269;27;20015;-60
2022/01/11 08:44:20;;;;;;;8.57;3.33;;;;;;;;;;5126523;27;20092;-61
2022/01/11 08:46:46;;;;;;;3.65;1.83;;;;;;;;;;5126129;27;20084;-59
2022/01/11 08:49:12;;;;;;;6.93;1.02;;;;;;;;;;5124476;27;20085;-59
2022/01/11 08:51:38;;;;;;;11.70;2.05;;;;;;;;;;5127293;27;20023;-60
2022/01/11 08:54:03;;;;;;;6.55;4.88;;;;;;;;;;5126823;27;20041;-65
2022/01/11 08:56:30;;;;;;;1.35;0.98;;;;;;;;;;5127723;27;20111;-65
2022/01/11 08:58:55;;;;;;;2.90;1.35;;;;;;;;;;5126464;27;20083;-66
2022/01/11 09:01:21;;;;;;;0.75;0.47;;;;;;;;;;5127515;27;20023;-59
2022/01/11 09:03:46;;;;;;;2.67;1.05;;;;;;;;;;5128664;27;20011;-61
2022/01/11 09:06:11;;;;;;;5.60;1.45;;;;;;;;;;5128257;27;20050;-60
2022/01/11 09:08:37;;;;;;;3.83;1.10;;;;;;;;;;5127862;27;20174;-60
2022/01/11 09:11:04;;;;;;;2.10;0.85;;;;;;;;;;5127454;27;20107;-60
2022/01/11 09:13:30;;;;;;;3.30;1.25;;;;;;;;;;5123894;27;20474;-60
2022/01/11 09:15:55;;;;;;;2.80;1.42;;;;;;;;;;5125284;27;20023;-60
2022/01/11 09:18:21;;;;;;;2.38;1.20;;;;;;;;;;5126047;27;20740;-60
2022/01/11 09:20:46;;;;;;;2.47;0.90;;;;;;;;;;5125528;27;20639;-59
2022/01/11 09:23:11;;;;;;;4.50;1.45;;;;;;;;;;5125097;27;20062;-60
2022/01/11 09:25:37;;;;;;;6.93;1.85;;;;;;;;;;5125239;27;20026;-60
2022/01/11 09:28:02;;;;;;;2.95;1.60;;;;;;;;;;5124127;27;20565;-61
2022/01/11 09:30:28;;;;;;;2.80;1.17;;;;;;;;;;5124933;27;20019;-60
2022/01/11 09:32:54;;;;;;;4.57;1.40;;;;;;;;;;5123371;27;20050;-60
2022/01/11 09:35:19;;;;;;;2.38;0.82;;;;;;;;;;5124171;27;20015;-60
2022/01/11 09:37:46;;;;;;;9.35;1.55;;;;;;;;;;5124543;27;20076;-60
2022/01/11 09:40:12;;;;;;;3.72;1.00;;;;;;;;;;5124290;27;20027;-60
2022/01/11 09:42:38;;;;;;;3.13;0.90;;;;;;;;;;5124879;27;20076;-59
2022/01/11 09:45:04;;;;;;;2.67;0.63;;;;;;;;;;5124555;27;20086;-59
2022/01/11 09:47:29;;;;;;;1.23;0.50;;;;;;;;;;5124419;27;20023;-59
2022/01/11 09:49:55;;;;;;;2.78;1.02;;;;;;;;;;5122909;27;20068;-59
2022/01/11 09:52:24;;;;;;;4.88;0.68;;;;;;;;;;5124166;28;20465;-59
2022/01/11 09:54:49;;;;;;;1.77;0.38;;;;;;;;;;5123583;28;20114;-59
2022/01/11 09:57:14;;;;;;;10.80;1.65;;;;;;;;;;5122622;27;20101;-59
2022/01/11 09:59:40;;;;;;;2.58;1.55;;;;;;;;;;5122434;28;20533;-59
2022/01/11 10:02:06;;;;;;;2.58;0.88;;;;;;;;;;5123892;28;20015;-58
2022/01/11 10:04:32;;;;;;;8.65;2.30;;;;;;;;;;5124098;28;20033;-59
2022/01/11 10:06:59;;;;;;;6.32;1.27;;;;;;;;;;5122702;28;20034;-58
2022/01/11 10:09:26;;;;;;;8.30;1.92;;;;;;;;;;5124183;28;20395;-58
2022/01/11 10:11:52;;;;;;;3.45;1.27;;;;;;;;;;5124208;27;20042;-58
2022/01/11 10:14:17;;;;;;;4.97;2.60;;;;;;;;;;5123509;27;20011;-58
2022/01/11 10:16:43;;;;;;;7.82;3.25;;;;;;;;;;5123544;28;20026;-57
2022/01/11 10:19:19;;;;;;;15.43;1.48;;;;;;;;;;5109913;27;20122;-57
2022/01/11 10:21:45;;;;;;;3.22;0.57;;;;;;;;;;5129146;27;20320;-57
2022/01/11 10:24:32;;;;;;;17.02;3.30;;;;;;;;;;5130663;27;20534;-57
2022/01/11 10:26:59;;;;;;;7.65;1.75;;;;;;;;;;5129449;27;20027;-55
2022/01/11 10:29:40;;;;;;;1.52;0.77;;;;;;;;;;5130408;27;20019;-52
2022/01/11 10:32:17;;;;;;;4.28;1.70;;;;;;;;;;5130074;27;20033;-48
2022/01/11 10:34:47;;;;;;;9.50;1.83;;;;;;;;;;5129717;27;20110;-51
2022/01/11 10:37:12;;;;;;;1.17;0.50;;;;;;;;;;5129452;27;20114;-54
2022/01/11 10:39:39;;;;;;;5.15;1.73;;;;;;;;;;5130419;27;20106;-57
2022/01/11 10:42:06;;;;;;;5.43;1.20;;;;;;;;;;5130563;27;20027;-59
2022/01/11 10:44:43;;;;;;;3.78;1.33;;;;;;;;;;5130635;27;20031;-57
2022/01/11 10:47:09;;;;;;;4.15;1.08;;;;;;;;;;5126421;27;20020;-59
2022/01/11 10:49:36;;;;;;;4.03;1.52;;;;;;;;;;5129040;27;20020;-48
2022/01/11 10:52:19;;;;;;;4.72;1.88;;;;;;;;;;5130045;27;20424;-57
2022/01/11 10:54:45;;;;;;;13.30;2.83;;;;;;;;;;5129192;27;20106;-55
2022/01/11 10:57:16;;;;;;;12.70;4.65;;;;;;;;;;5129472;27;20106;-55
2022/01/11 10:59:42;;;;;;;2.83;1.15;;;;;;;;;;5130160;27;20060;-54
2022/01/11 11:02:12;;;;;;;5.15;1.75;;;;;;;;;;5129848;27;20027;-57
2022/01/11 11:04:38;;;;;;;3.03;1.75;;;;;;;;;;5128223;27;20522;-56
2022/01/11 11:07:13;;;;;;;27.10;1.95;;;;;;;;;;5130559;27;20019;-56
2022/01/11 11:09:48;;;;;;;2.92;0.93;;;;;;;;;;5127621;27;20028;-57
2022/01/11 11:12:14;;;;;;;0.70;0.70;;;;;;;;;;5130353;27;20105;-57
2022/01/11 11:14:50;;;;;;;4.75;1.77;;;;;;;;;;5129496;27;20038;-56
2022/01/11 11:17:32;;;;;;;3.22;1.48;;;;;;;;;;5130058;27;20015;-58
2022/01/11 11:20:04;;;;;;;2.22;1.23;;;;;;;;;;5129327;27;20023;-58
2022/01/11 11:22:29;;;;;;;;;;;;;;;;;;5130282;27;20015;-58
2022/01/11 11:24:55;;;;;;;2.47;1.15;;;;;;;;;;5129385;27;19998;-57
2022/01/11 11:27:22;;;;;;;5.45;1.08;;;;;;;;;;5129764;27;20047;-57
2022/01/11 11:29:51;;;;;;;5.55;2.53;;;;;;;;;;5128515;27;20321;-58
2022/01/11 11:32:20;;;;;;;22.88;3.03;;;;;;;;;;5129110;27;20041;-58
2022/01/11 11:34:49;;;;;;;1.50;1.00;;;;;;;;;;5129668;27;20023;-56
2022/01/11 11:37:16;;;;;;;7.65;2.00;;;;;;;;;;5130256;27;20022;-57
2022/01/11 11:39:42;;;;;;;9.25;1.75;;;;;;;;;;5129286;27;20180;-56
2022/01/11 11:42:10;;;;;;;4.82;1.48;;;;;;;;;;5129468;27;20553;-57
2022/01/11 11:44:37;;;;;;;3.30;2.30;;;;;;;;;;5128467;27;20027;-57
2022/01/11 11:47:05;;;;;;;2.22;1.20;;;;;;;;;;5128877;27;20765;-56
2022/01/11 11:49:49;;;;;;;0.85;0.55;;;;;;;;;;5128599;27;20015;-57
2022/01/11 11:52:19;;;;;;;7.38;1.98;;;;;;;;;;5125355;27;20034;-57
2022/01/11 11:54:49;;;;;;;6.18;2.58;;;;;;;;;;5128120;27;20079;-57
2022/01/11 11:57:14;;;;;;;4.28;1.92;;;;;;;;;;5127440;27;20074;-57
2022/01/11 11:59:40;;;;;;;20.52;2.65;;;;;;;;;;5129012;27;20046;-57
2022/01/11 12:02:05;;;;;;;4.75;1.88;;;;;;;;;;5127385;27;20027;-57
2022/01/11 12:04:31;;;;;;;7.72;2.75;;;;;;;;;;5110562;27;20068;-57
2022/01/11 12:06:57;;;;;;;3.22;2.47;;;;;;;;;;5128848;27;20042;-57
2022/01/11 12:09:28;;;;;;;5.97;0.95;;;;;;;;;;5128425;27;20234;-61
2022/01/11 12:11:53;;;;;;;;;;;;;;;;;;5125202;27;20458;-61
2022/01/11 12:14:28;;;;;;;3.27;1.30;;;;;;;;;;5126985;27;19910;-60
2022/01/11 12:16:54;;;;;;;14.30;0.85;;;;;;;;;;5125890;27;20243;-60
2022/01/11 12:19:38;;;;;;;2.45;1.27;;;;;;;;;;5128297;27;20335;-60
2022/01/11 12:22:04;;;;;;;1.98;0.95;;;;;;;;;;5128289;27;20051;-60
2022/01/11 12:24:39;;;;;;;1.55;1.02;;;;;;;;;;5128972;27;20101;-61
2022/01/11 12:27:06;;;;;;;1.58;0.88;;;;;;;;;;5128207;27;20015;-59
2022/01/11 12:29:32;;;;;;;8.68;1.08;;;;;;;;;;5128041;27;20727;-59
2022/01/11 12:32:03;;;;;;;12.40;1.33;;;;;;;;;;5128083;27;20019;-60
2022/01/11 12:34:46;;;;;;;5.32;1.08;;;;;;;;;;5127648;27;20019;-60
2022/01/11 12:37:23;;;;;;;0.95;0.57;;;;;;;;;;5128165;27;20129;-61
2022/01/11 12:39:57;;;;;;;1.15;0.52;;;;;;;;;;5126003;27;20450;-59
2022/01/11 12:42:26;;;;;;;4.93;1.00;;;;;;;;;;5126909;27;20027;-59
2022/01/11 12:47:17;;;;;;;5.13;4.55;;;;;;;;;;5125651;27;20556;-60
2022/01/11 12:50:01;;;;;;;6.75;2.30;;;;;;;;;;5128527;27;20015;-60
2022/01/11 12:52:26;;;;;;;6.03;3.42;;;;;;;;;;5128709;27;20019;-59
2022/01/11 12:54:56;;;;;;;6.85;2.60;;;;;;;;;;5128368;27;20097;-60
2022/01/11 12:57:23;;;;;;;1.55;0.98;;;;;;;;;;5126021;27;20015;-59
2022/01/11 12:59:50;;;;;;;5.45;1.48;;;;;;;;;;5128841;27;20065;-60
2022/01/11 13:02:17;;;;;;;2.65;0.73;;;;;;;;;;5125883;27;20019;-61
2022/01/11 13:04:47;;;;;;;6.47;2.67;;;;;;;;;;5127445;27;20076;-60
2022/01/11 13:07:19;;;;;;;2.17;0.60;;;;;;;;;;5128360;27;20090;-60
2022/01/11 13:09:46;;;;;;;13.13;2.38;;;;;;;;;;5127389;27;20084;-60
2022/01/11 13:12:33;;;;;;;4.03;2.17;;;;;;;;;;5126921;27;20023;-59
2022/01/11 13:15:01;;;;;;;3.58;1.02;;;;;;;;;;5127352;27;20033;-59
2022/01/11 13:17:27;;;;;;;13.30;2.00;;;;;;;;;;5127639;27;20035;-60
2022/01/11 13:19:52;;;;;;;9.18;2.22;;;;;;;;;;5126978;27;20094;-60
2022/01/11 13:22:23;;;;;;;5.80;1.85;;;;;;;;;;5127424;27;20112;-60
2022/01/11 13:24:48;;;;;;;4.20;1.95;;;;;;;;;;5128421;27;20394;-59
2022/01/11 13:27:14;;;;;;;12.25;3.13;;;;;;;;;;5127452;27;20469;-59
2022/01/11 13:29:40;;;;;;;6.18;4.22;;;;;;;;;;5126658;27;20035;-59
2022/01/11 13:32:05;;;;;;;4.88;1.38;;;;;;;;;;5127649;27;20025;-60
2022/01/11 13:34:31;;;;;;;12.13;1.10;;;;;;;;;;5127515;27;20019;-60
2022/01/11 13:36:57;;;;;;;1.63;1.15;;;;;;;;;;5127674;27;20075;-60
2022/01/11 13:39:24;;;;;;;4.45;2.13;;;;;;;;;;5127778;27;20447;-61
2022/01/11 13:41:53;;;;;;;1.95;0.77;;;;;;;;;;5127811;27;20029;-60
2022/01/11 13:44:20;;;;;;;2.00;0.80;;;;;;;;;;5126782;27;20051;-60
2022/01/11 13:46:47;;;;;;;13.43;3.55;;;;;;;;;;5127443;27;20023;-60
2022/01/11 13:49:16;;;;;;;5.65;2.58;;;;;;;;;;5127262;27;20035;-60
2022/01/11 13:51:43;;;;;;;2.47;0.95;;;;;;;;;;5127898;28;20019;-60
2022/01/11 13:54:08;;;;;;;2.85;0.88;;;;;;;;;;5126506;27;20054;-60
2022/01/11 13:56:35;;;;;;;2.80;0.95;;;;;;;;;;5126421;28;20382;-60
2022/01/11 13:59:01;;;;;;;5.63;1.90;;;;;;;;;;5124877;28;20686;-60
2022/01/11 14:01:28;;;;;;;4.00;1.50;;;;;;;;;;5126658;28;20164;-60
2022/01/11 14:04:10;;;;;;;2.95;1.27;;;;;;;;;;5126615;27;20414;-61
2022/01/11 14:06:40;;;;;;;9.25;2.45;;;;;;;;;;5126207;28;20023;-61
2022/01/11 14:09:10;;;;;;;7.00;1.27;;;;;;;;;;5126673;28;20052;-60
2022/01/11 14:11:38;;;;;;;4.85;2.10;;;;;;;;;;5127000;28;20034;-60
2022/01/11 14:14:04;;;;;;;4.60;2.33;;;;;;;;;;5126848;28;20140;-60
2022/01/11 14:16:39;;;;;;;4.55;2.53;;;;;;;;;;5126767;27;20026;-60
2022/01/11 14:19:08;;;;;;;4.70;1.02;;;;;;;;;;5126535;28;20043;-60
2022/01/11 14:21:47;;;;;;;6.63;1.80;;;;;;;;;;5125503;27;20847;-60
2022/01/11 14:24:12;;;;;;;22.05;14.38;;;;;;;;;;5126741;28;20023;-60
2022/01/11 14:26:38;;;;;;;15.90;13.40;;;;;;;;;;5126705;28;20015;-60
2022/01/11 14:29:03;;;;;;;11.50;8.73;;;;;;;;;;5126766;27;20489;-60
2022/01/11 14:31:31;;;;;;;3.83;3.13;;;;;;;;;;5126709;27;20386;-60
2022/01/11 14:34:06;;;;;;;11.07;7.10;;;;;;;;;;5127029;27;20680;-60
2022/01/11 14:36:32;;;;;;;4.43;2.67;;;;;;;;;;5126366;28;20119;-61
2022/01/11 14:39:05;;;;;;;9.00;5.05;;;;;;;;;;5126502;27;20039;-60
2022/01/11 14:41:36;;;;;;;11.93;5.72;;;;;;;;;;5126678;28;20080;-60
2022/01/11 14:44:05;;;;;;;11.70;4.28;;;;;;;;;;5124305;28;20079;-60